Time;durP1;ratioP1;P1;durP2;ratioP2;P2;SDS_P1;SDS_P2;PMS_P1;PMS_P2;Temp;Humidity;BMP_temperature;BMP_pressure;BME280_temperature;BME280_humidity;BME280_pressure;Samples;Min_cycle;Max_cycle;Signal;HPM_P1;HPM_P2
2024/03/28 05:01:26;;;;;;;0.90;0.80;;;6.40;97.30;;;;;;5633362;23;20936;-88
2024/03/28 05:03:52;;;;;;;0.90;0.80;;;6.40;97.30;;;;;;4974951;28;20634;-88
2024/03/28 05:06:17;;;;;;;0.90;0.80;;;6.40;97.30;;;;;;4975332;28;20174;-87
2024/03/28 05:08:43;;;;;;;0.90;0.80;;;6.40;97.30;;;;;;4985299;28;20320;-87
2024/03/28 05:11:08;;;;;;;1.20;1.10;;;6.40;97.30;;;;;;4970747;23;20724;-64
2024/03/28 05:13:34;;;;;;;1.53;1.43;;;6.40;97.30;;;;;;4970896;28;20197;-65
2024/03/28 05:16:00;;;;;;;1.00;0.90;;;6.40;97.30;;;;;;4971507;28;20229;-65
2024/03/28 05:18:25;;;;;;;1.00;0.90;;;6.40;97.30;;;;;;4970309;28;20510;-65
2024/03/28 05:20:51;;;;;;;1.17;1.07;;;6.40;97.30;;;;;;4979884;28;20241;-66
2024/03/28 05:23:16;;;;;;;1.10;1.00;;;6.40;97.30;;;;;;4970778;28;20182;-65
2024/03/28 05:25:42;;;;;;;1.00;0.90;;;6.40;97.30;;;;;;4948535;28;20186;-65
2024/03/28 05:28:08;;;;;;;1.00;0.90;;;6.40;97.30;;;;;;4948986;28;20225;-65
2024/03/28 05:30:33;;;;;;;0.90;0.80;;;6.40;97.30;;;;;;4960599;28;20640;-64
2024/03/28 05:33:00;;;;;;;1.10;1.00;;;6.40;97.30;;;;;;4975850;28;20244;-65
2024/03/28 05:35:26;;;;;;;1.00;0.90;;;6.40;97.30;;;;;;4966197;28;20262;-65
2024/03/28 05:37:51;;;;;;;0.90;0.80;;;6.40;97.30;;;;;;4969713;28;20521;-64
2024/03/28 05:40:17;;;;;;;1.00;0.90;;;6.40;97.30;;;;;;4969433;28;20182;-64
2024/03/28 05:42:42;;;;;;;1.40;1.30;;;6.40;97.30;;;;;;4971238;28;20186;-64
2024/03/28 05:45:11;;;;;;;1.00;0.90;;;6.40;97.30;;;;;;4969651;28;20623;-65
2024/03/28 05:47:36;;;;;;;1.20;1.13;;;6.50;97.30;;;;;;4953051;28;20198;-65
2024/03/28 05:50:02;;;;;;;1.33;1.23;;;6.50;97.30;;;;;;4965381;28;20424;-65
2024/03/28 05:52:27;;;;;;;1.10;1.00;;;6.50;97.30;;;;;;4966247;28;20232;-65
2024/03/28 05:54:52;;;;;;;1.67;1.57;;;6.50;97.30;;;;;;4955114;28;20179;-66
2024/03/28 05:57:18;;;;;;;1.20;1.10;;;6.50;97.30;;;;;;4957354;28;20258;-65
2024/03/28 05:59:43;;;;;;;1.00;0.90;;;6.50;97.30;;;;;;4950446;28;20186;-65
2024/03/28 06:02:09;;;;;;;1.30;1.20;;;6.50;97.30;;;;;;4959950;28;20570;-64
2024/03/28 06:04:34;;;;;;;1.20;1.10;;;6.50;97.30;;;;;;4958896;28;20183;-65
2024/03/28 06:07:00;;;;;;;1.27;1.10;;;6.50;97.30;;;;;;4964864;28;20229;-65
2024/03/28 06:09:26;;;;;;;1.00;0.90;;;6.50;97.30;;;;;;4957389;28;20215;-65
2024/03/28 06:11:51;;;;;;;1.00;0.90;;;6.60;97.30;;;;;;4963088;28;20723;-64
2024/03/28 06:14:17;;;;;;;1.17;1.13;;;6.60;97.30;;;;;;4965022;28;20187;-65
2024/03/28 06:16:42;;;;;;;1.00;0.90;;;6.60;97.30;;;;;;4972458;28;20194;-64
2024/03/28 06:19:08;;;;;;;1.20;1.10;;;6.60;97.30;;;;;;4957538;28;20209;-65
2024/03/28 06:21:33;;;;;;;1.23;1.13;;;6.60;97.30;;;;;;4960124;28;20695;-65
2024/03/28 06:23:59;;;;;;;1.40;1.30;;;6.60;97.30;;;;;;4951957;28;20219;-65
2024/03/28 06:26:24;;;;;;;1.10;1.00;;;6.70;97.30;;;;;;4939968;28;20187;-65
2024/03/28 06:28:51;;;;;;;1.10;1.10;;;6.70;97.30;;;;;;4975971;28;20321;-66
2024/03/28 06:31:17;;;;;;;1.00;0.90;;;6.70;97.30;;;;;;4957628;28;20206;-65
2024/03/28 06:33:44;;;;;;;1.03;0.93;;;6.80;97.30;;;;;;4956468;28;20948;-65
2024/03/28 06:36:26;;;;;;;2.30;2.10;;;6.80;97.30;;;;;;4977410;23;20590;-83
2024/03/28 06:38:54;;;;;;;1.10;1.00;;;6.80;97.30;;;;;;4986799;28;20500;-84
2024/03/28 06:41:27;;;;;;;1.00;0.90;;;6.90;97.30;;;;;;4975939;28;20837;-83
2024/03/28 06:44:06;;;;;;;0.90;0.80;;;6.90;97.30;;;;;;4960176;28;20442;-84
2024/03/28 06:46:37;;;;;;;0.80;0.70;;;6.90;97.30;;;;;;4949168;29;20477;-84
2024/03/28 06:49:08;;;;;;;0.87;0.77;;;6.90;97.30;;;;;;4946071;29;21060;-84
2024/03/28 06:51:36;;;;;;;0.97;0.87;;;6.90;97.30;;;;;;4947343;29;20430;-85
2024/03/28 06:54:16;;;;;;;1.57;1.20;;;7.00;97.30;;;;;;4940225;29;20569;-84
2024/03/28 06:56:47;;;;;;;1.67;1.57;;;7.10;97.30;;;;;;4941061;29;20419;-84
2024/03/28 06:59:15;;;;;;;1.83;1.10;;;7.20;97.30;;;;;;4944225;29;20487;-84
2024/03/28 07:01:42;;;;;;;1.70;1.30;;;7.20;97.30;;;;;;4945547;29;20410;-85
2024/03/28 07:04:08;;;;;;;1.10;1.00;;;7.20;97.30;;;;;;4950596;29;20983;-84
2024/03/28 07:06:34;;;;;;;3.40;1.70;;;7.30;97.30;;;;;;4953581;29;20410;-84
2024/03/28 07:09:00;;;;;;;1.23;1.13;;;7.30;97.30;;;;;;4948892;29;20558;-84
2024/03/28 07:11:25;;;;;;;1.40;1.30;;;7.40;97.30;;;;;;4948574;29;20515;-84
2024/03/28 07:13:57;;;;;;;1.10;1.00;;;7.40;97.30;;;;;;4949774;29;20191;-84
2024/03/28 07:16:26;;;;;;;4.63;3.73;;;7.50;97.30;;;;;;4952961;29;20254;-84
2024/03/28 07:18:55;;;;;;;1.00;0.90;;;7.50;97.30;;;;;;4953286;29;20776;-84
2024/03/28 07:21:28;;;;;;;1.20;1.10;;;7.60;97.30;;;;;;4953209;29;20948;-84
2024/03/28 07:23:57;;;;;;;0.90;0.80;;;7.70;97.30;;;;;;4948421;28;20423;-84
2024/03/28 07:26:25;;;;;;;0.80;0.70;;;7.70;97.30;;;;;;4950724;29;20459;-85
2024/03/28 07:29:57;;;;;;;1.33;1.30;;;7.80;97.30;;;;;;4951259;29;20463;-85
2024/03/28 07:31:57;;;;;;;1.00;0.90;;;7.90;97.30;;;;;;4943369;29;20414;-84
2024/03/28 07:34:25;;;;;;;1.00;0.90;;;8.00;97.30;;;;;;4955376;28;20473;-85
2024/03/28 07:36:57;;;;;;;1.30;1.20;;;8.20;97.30;;;;;;4969019;28;20920;-85
2024/03/28 07:39:28;;;;;;;1.10;1.00;;;8.30;97.30;;;;;;4953811;28;20454;-84
2024/03/28 07:41:56;;;;;;;0.90;0.80;;;8.30;97.30;;;;;;4955806;28;20982;-85
2024/03/28 07:44:25;;;;;;;1.00;0.90;;;8.30;97.30;;;;;;4951538;28;20441;-85
2024/03/28 07:47:08;;;;;;;1.00;0.90;;;8.40;97.30;;;;;;4968856;28;20421;-84
2024/03/28 07:49:36;;;;;;;0.90;0.80;;;8.40;97.30;;;;;;4973382;28;20476;-85
2024/03/28 07:52:08;;;;;;;1.57;1.20;;;8.50;97.30;;;;;;4955423;28;20499;-84
2024/03/28 07:54:37;;;;;;;2.07;1.83;;;8.50;97.30;;;;;;4958823;28;20457;-84
2024/03/28 07:57:05;;;;;;;2.13;1.73;;;8.60;97.30;;;;;;4967976;28;20418;-84
2024/03/28 07:59:30;;;;;;;0.93;0.83;;;8.60;97.30;;;;;;4945711;28;20967;-85
2024/03/28 08:01:57;;;;;;;1.00;0.90;;;8.60;97.30;;;;;;4953996;28;20422;-84
2024/03/28 08:04:23;;;;;;;0.80;0.70;;;8.90;97.30;;;;;;4953245;28;20668;-84
2024/03/28 08:06:48;;;;;;;1.00;0.90;;;9.10;97.30;;;;;;4952875;28;20434;-84
2024/03/28 08:09:14;;;;;;;2.00;1.83;;;9.20;97.30;;;;;;4951192;28;20206;-85
2024/03/28 08:11:42;;;;;;;1.00;0.90;;;9.30;97.30;;;;;;4951435;28;20182;-84
2024/03/28 08:14:09;;;;;;;1.37;1.20;;;9.30;97.30;;;;;;4948183;28;20513;-84
2024/03/28 08:16:35;;;;;;;1.00;0.90;;;9.30;97.30;;;;;;4954709;28;20420;-84
2024/03/28 08:19:02;;;;;;;2.40;1.17;;;9.40;97.30;;;;;;4954108;28;20435;-85
2024/03/28 08:21:27;;;;;;;1.20;1.07;;;9.60;97.30;;;;;;4951259;28;20218;-84
2024/03/28 08:23:52;;;;;;;1.40;1.30;;;9.80;97.30;;;;;;4951922;28;20458;-84
2024/03/28 08:26:20;;;;;;;1.00;0.90;;;9.90;97.30;;;;;;4951893;28;20202;-83
2024/03/28 08:28:45;;;;;;;1.80;1.70;;;10.00;97.30;;;;;;4947626;28;20635;-85
2024/03/28 08:31:12;;;;;;;1.00;0.90;;;10.10;97.30;;;;;;4965361;28;20470;-84
2024/03/28 08:33:38;;;;;;;1.10;1.00;;;10.30;97.30;;;;;;4954305;28;20174;-84
2024/03/28 08:36:05;;;;;;;1.47;1.43;;;10.30;97.30;;;;;;4968295;28;20490;-85
2024/03/28 08:38:31;;;;;;;1.00;1.00;;;10.40;97.30;;;;;;4950087;28;20864;-84
2024/03/28 08:40:56;;;;;;;2.90;1.50;;;10.60;97.30;;;;;;4966671;28;20510;-85
2024/03/28 08:43:22;;;;;;;1.23;1.13;;;10.70;97.30;;;;;;4969862;28;20187;-85
2024/03/28 08:45:48;;;;;;;2.13;1.97;;;10.70;97.30;;;;;;4969842;28;20233;-85
2024/03/28 08:48:13;;;;;;;1.10;1.03;;;10.80;97.30;;;;;;4966464;29;20211;-84
2024/03/28 08:50:39;;;;;;;1.53;1.40;;;11.00;97.30;;;;;;4982673;28;20192;-85
2024/03/28 08:53:05;;;;;;;0.90;0.80;;;11.10;97.30;;;;;;4953906;28;20279;-84
2024/03/28 08:55:30;;;;;;;1.13;1.03;;;11.20;97.30;;;;;;4951017;28;20208;-84
2024/03/28 08:57:57;;;;;;;1.43;1.40;;;11.40;97.30;;;;;;4954103;28;20191;-85
2024/03/28 09:00:25;;;;;;;1.40;1.30;;;11.50;97.30;;;;;;4950898;28;20191;-84
2024/03/28 09:02:51;;;;;;;1.40;0.90;;;11.60;97.30;;;;;;4968391;28;20418;-84
2024/03/28 09:05:17;;;;;;;1.43;1.33;;;11.60;97.10;;;;;;4951606;28;20468;-84
2024/03/28 09:07:49;;;;;;;1.27;1.17;;;11.80;97.30;;;;;;4954628;28;20572;-84
2024/03/28 09:10:14;;;;;;;2.40;1.30;;;11.90;96.70;;;;;;4956183;28;20437;-84
2024/03/28 09:12:40;;;;;;;1.67;1.67;;;12.00;96.50;;;;;;4953543;28;20420;-83
2024/03/28 09:15:08;;;;;;;1.07;0.97;;;11.90;96.20;;;;;;4949739;28;20225;-84
2024/03/28 09:17:34;;;;;;;1.17;1.07;;;12.00;96.40;;;;;;4971303;28;20187;-84
2024/03/28 09:19:59;;;;;;;1.43;1.33;;;12.10;95.50;;;;;;4948976;28;20421;-84
2024/03/28 09:22:25;;;;;;;1.40;1.20;;;12.20;95.40;;;;;;4948537;28;20417;-85
2024/03/28 09:24:50;;;;;;;1.73;1.63;;;12.10;94.70;;;;;;4950007;28;20202;-84
2024/03/28 09:27:16;;;;;;;1.67;1.17;;;12.20;94.70;;;;;;4950493;29;20179;-85
2024/03/28 09:29:44;;;;;;;1.20;1.20;;;12.20;94.50;;;;;;4964060;28;20175;-85
2024/03/28 09:32:10;;;;;;;1.70;1.60;;;12.30;94.20;;;;;;4947702;28;20537;-85
2024/03/28 09:34:37;;;;;;;1.10;1.00;;;12.50;94.30;;;;;;4949399;28;20882;-84
2024/03/28 09:37:05;;;;;;;1.33;1.17;;;12.70;93.00;;;;;;4949276;28;20182;-84
2024/03/28 09:39:30;;;;;;;1.43;1.40;;;13.00;93.30;;;;;;4952571;28;20426;-83
2024/03/28 09:41:59;;;;;;;1.13;1.03;;;12.90;92.20;;;;;;4949814;28;20509;-87
2024/03/28 09:44:25;;;;;;;1.43;1.33;;;13.10;91.30;;;;;;4951790;28;20549;-85
2024/03/28 09:46:52;;;;;;;1.73;1.53;;;13.20;91.90;;;;;;4947258;29;20427;-85
2024/03/28 09:49:19;;;;;;;2.60;1.43;;;13.30;91.80;;;;;;4950465;28;20269;-84
2024/03/28 09:51:46;;;;;;;1.47;1.37;;;13.30;92.00;;;;;;4950632;29;20782;-85
2024/03/28 09:54:13;;;;;;;1.67;1.27;;;13.40;91.80;;;;;;4946785;28;20432;-84
2024/03/28 09:56:39;;;;;;;1.10;1.00;;;13.50;91.30;;;;;;4969867;28;20456;-84
2024/03/28 09:59:04;;;;;;;1.87;1.67;;;13.50;91.60;;;;;;4949009;28;20445;-85
2024/03/28 10:01:34;;;;;;;1.17;1.07;;;13.50;90.80;;;;;;4952201;28;20187;-86
2024/03/28 10:04:19;;;;;;;1.00;0.97;;;13.50;90.90;;;;;;4971249;28;20179;-84
2024/03/28 10:06:55;;;;;;;1.00;0.90;;;13.70;90.40;;;;;;4965498;28;20489;-85
2024/03/28 10:09:22;;;;;;;1.13;1.03;;;13.60;88.70;;;;;;4947410;28;20633;-83
2024/03/28 10:11:48;;;;;;;1.20;1.10;;;13.50;89.20;;;;;;4947860;29;20505;-86
2024/03/28 10:14:14;;;;;;;1.73;1.10;;;13.70;89.50;;;;;;4953043;28;20457;-85
2024/03/28 10:16:42;;;;;;;1.47;1.37;;;14.00;89.10;;;;;;4971138;28;20418;-84
2024/03/28 10:19:08;;;;;;;1.20;1.10;;;14.20;87.90;;;;;;4966591;28;20426;-85
2024/03/28 10:21:36;;;;;;;2.60;1.93;;;14.20;88.10;;;;;;4963632;28;20430;-85
2024/03/28 10:24:04;;;;;;;1.47;1.37;;;14.30;86.70;;;;;;4948521;28;20423;-86
2024/03/28 10:26:32;;;;;;;1.20;1.20;;;14.20;86.90;;;;;;4950452;28;20999;-84
2024/03/28 10:28:59;;;;;;;0.90;0.80;;;14.20;86.60;;;;;;4944838;28;20958;-85
2024/03/28 10:31:26;;;;;;;1.20;1.10;;;14.20;87.20;;;;;;4957880;28;20421;-85
2024/03/28 10:33:52;;;;;;;2.10;1.10;;;14.40;86.50;;;;;;4951103;28;20966;-84
2024/03/28 10:36:26;;;;;;;1.40;1.00;;;14.60;86.60;;;;;;4951094;28;20469;-84
2024/03/28 10:39:08;;;;;;;1.33;1.23;;;14.60;85.50;;;;;;4953841;28;20185;-85
2024/03/28 10:41:38;;;;;;;1.30;1.20;;;14.80;86.20;;;;;;4953344;28;20432;-85
2024/03/28 10:44:04;;;;;;;1.03;0.93;;;15.00;86.10;;;;;;4974246;28;20421;-85
2024/03/28 10:46:31;;;;;;;0.80;0.80;;;15.10;85.20;;;;;;4954199;28;20461;-84
2024/03/28 10:49:05;;;;;;;1.23;1.03;;;14.80;82.50;;;;;;4953652;28;20990;-84
2024/03/28 10:51:43;;;;;;;1.40;1.33;;;14.30;84.30;;;;;;4952770;28;20967;-84
2024/03/28 10:54:16;;;;;;;1.10;1.00;;;14.20;86.00;;;;;;4954740;28;20425;-84
2024/03/28 10:56:44;;;;;;;0.90;0.80;;;14.50;83.80;;;;;;4969094;28;20728;-85
2024/03/28 10:59:11;;;;;;;0.93;0.90;;;15.00;83.50;;;;;;4951946;28;20423;-84
2024/03/28 11:01:37;;;;;;;1.47;1.30;;;15.10;83.10;;;;;;4969934;28;20426;-83
2024/03/28 11:04:04;;;;;;;0.70;0.67;;;14.50;82.70;;;;;;4951525;28;20449;-85
2024/03/28 11:06:31;;;;;;;1.00;0.90;;;14.20;82.40;;;;;;4953543;28;20997;-84
2024/03/28 11:08:57;;;;;;;1.17;1.07;;;14.20;82.90;;;;;;4970896;28;20465;-83
2024/03/28 11:11:23;;;;;;;9.10;1.30;;;14.10;82.20;;;;;;4953632;28;20433;-84
2024/03/28 11:13:48;;;;;;;1.83;1.27;;;14.00;82.40;;;;;;4973368;28;20794;-83
2024/03/28 11:16:15;;;;;;;0.90;0.80;;;14.00;82.40;;;;;;4952705;28;20199;-85
2024/03/28 11:18:42;;;;;;;1.00;0.90;;;14.00;81.70;;;;;;4952758;29;20250;-83
2024/03/28 11:21:07;;;;;;;1.20;1.00;;;14.20;81.30;;;;;;4949269;28;20875;-84
2024/03/28 11:23:33;;;;;;;1.10;1.00;;;14.40;81.30;;;;;;4973296;28;20429;-84
2024/03/28 11:26:09;;;;;;;1.00;0.90;;;14.30;81.50;;;;;;4970620;28;20214;-84
2024/03/28 11:28:43;;;;;;;1.47;1.37;;;14.10;82.20;;;;;;4950055;28;20462;-83
2024/03/28 11:31:13;;;;;;;1.00;0.93;;;14.10;82.50;;;;;;4951169;28;20713;-85
2024/03/28 11:33:38;;;;;;;0.90;0.80;;;14.10;82.50;;;;;;4953118;28;20856;-84
2024/03/28 11:36:05;;;;;;;1.10;0.93;;;14.00;82.30;;;;;;4947866;28;20482;-84
2024/03/28 11:38:36;;;;;;;1.20;0.87;;;13.80;82.30;;;;;;4953459;28;20284;-83
2024/03/28 11:41:03;;;;;;;1.13;1.10;;;13.60;82.70;;;;;;4950482;28;20433;-85
2024/03/28 11:43:31;;;;;;;1.10;1.00;;;13.40;83.00;;;;;;4959031;28;20685;-84
2024/03/28 11:46:01;;;;;;;1.43;1.30;;;13.40;83.40;;;;;;4952603;28;20477;-84
2024/03/28 11:48:31;;;;;;;1.10;1.00;;;13.40;84.10;;;;;;4952898;28;21168;-84
2024/03/28 11:50:57;;;;;;;1.30;1.20;;;13.30;84.10;;;;;;4949327;29;20434;-84
2024/03/28 11:53:23;;;;;;;1.00;0.90;;;13.20;84.50;;;;;;4975226;28;20429;-84
2024/03/28 11:55:50;;;;;;;1.13;1.03;;;13.20;84.60;;;;;;4965677;28;20237;-84
2024/03/28 11:58:18;;;;;;;1.10;1.00;;;13.10;84.80;;;;;;4960804;28;20189;-85
2024/03/28 12:00:44;;;;;;;1.13;1.03;;;13.10;85.60;;;;;;4968756;28;20436;-84
2024/03/28 12:03:11;;;;;;;1.00;0.90;;;13.00;85.60;;;;;;4973916;28;20938;-85
2024/03/28 12:05:37;;;;;;;2.90;1.50;;;13.10;85.10;;;;;;4981685;28;20442;-83
2024/03/28 12:08:04;;;;;;;0.90;0.80;;;13.10;85.10;;;;;;4971732;28;20999;-85
2024/03/28 12:10:30;;;;;;;2.80;1.20;;;13.20;85.00;;;;;;4970151;28;20939;-85
2024/03/28 12:12:55;;;;;;;1.10;1.00;;;13.30;84.20;;;;;;4972133;28;20796;-83
2024/03/28 12:15:21;;;;;;;0.90;0.80;;;13.30;84.00;;;;;;4987269;28;20441;-85
2024/03/28 12:17:46;;;;;;;0.90;0.80;;;13.20;84.50;;;;;;4964279;28;20272;-85
2024/03/28 12:20:23;;;;;;;1.20;1.10;;;13.00;85.50;;;;;;4961592;28;20569;-85
2024/03/28 12:22:54;;;;;;;0.90;0.80;;;12.90;86.20;;;;;;4967334;28;20570;-84
2024/03/28 12:25:20;;;;;;;0.90;0.80;;;12.60;87.70;;;;;;4962509;28;20536;-85
2024/03/28 12:28:01;;;;;;;1.00;0.90;;;12.50;88.80;;;;;;4962163;28;20994;-83
2024/03/28 12:30:28;;;;;;;1.00;0.90;;;12.40;89.50;;;;;;4971492;28;20456;-83
2024/03/28 12:33:05;;;;;;;0.90;0.80;;;12.40;89.70;;;;;;4970050;28;20429;-84
2024/03/28 12:35:33;;;;;;;1.53;1.20;;;12.40;90.30;;;;;;4985123;28;20562;-84
2024/03/28 12:38:00;;;;;;;1.00;0.90;;;12.40;89.70;;;;;;4972746;28;20433;-84
2024/03/28 12:40:27;;;;;;;1.10;1.00;;;12.30;89.90;;;;;;4967501;28;20428;-84
2024/03/28 12:42:53;;;;;;;0.90;0.80;;;12.30;89.40;;;;;;4973437;28;20512;-87
2024/03/28 12:45:26;;;;;;;1.10;1.00;;;12.20;89.40;;;;;;4973318;28;20540;-84
2024/03/28 12:47:52;;;;;;;1.10;1.00;;;12.20;88.60;;;;;;4968443;28;20201;-85
2024/03/28 12:50:20;;;;;;;0.90;0.80;;;12.10;88.70;;;;;;4957507;28;20425;-85
2024/03/28 12:52:51;;;;;;;0.93;0.83;;;12.10;89.00;;;;;;4970573;28;20249;-85
2024/03/28 12:55:17;;;;;;;0.90;0.80;;;12.10;89.20;;;;;;4969757;28;20444;-84
2024/03/28 12:57:45;;;;;;;1.27;1.20;;;12.20;89.00;;;;;;4963586;28;20425;-85
2024/03/28 13:00:13;;;;;;;0.90;0.80;;;12.20;88.90;;;;;;4970433;28;20458;-84
2024/03/28 13:02:39;;;;;;;1.00;0.90;;;12.20;88.70;;;;;;4966488;28;20417;-85
2024/03/28 13:05:05;;;;;;;0.93;0.83;;;12.20;88.60;;;;;;4970567;28;20444;-84
2024/03/28 13:07:31;;;;;;;0.90;0.80;;;12.30;88.80;;;;;;4963803;28;20429;-85
2024/03/28 13:09:58;;;;;;;1.23;1.20;;;12.30;89.00;;;;;;4972139;28;20418;-85
2024/03/28 13:12:24;;;;;;;0.93;0.83;;;12.30;89.30;;;;;;4967730;28;20926;-85
2024/03/28 13:14:50;;;;;;;1.20;1.20;;;12.40;89.20;;;;;;4966077;28;20449;-85
2024/03/28 13:17:16;;;;;;;1.37;1.00;;;12.40;89.20;;;;;;4970201;28;20496;-86
2024/03/28 13:19:42;;;;;;;1.40;1.30;;;12.40;89.30;;;;;;4968435;28;20800;-84
2024/03/28 13:22:08;;;;;;;0.90;0.80;;;12.30;89.20;;;;;;4967871;28;20425;-84
2024/03/28 13:24:33;;;;;;;2.17;0.90;;;12.20;90.10;;;;;;4955990;28;20238;-84
2024/03/28 13:26:59;;;;;;;1.17;1.07;;;12.10;90.30;;;;;;4963673;28;20186;-84
2024/03/28 13:29:25;;;;;;;1.13;1.03;;;11.90;90.70;;;;;;4969794;28;20209;-83
2024/03/28 13:31:50;;;;;;;1.10;1.00;;;11.90;91.20;;;;;;4959171;28;20805;-84
2024/03/28 13:34:16;;;;;;;0.93;0.83;;;11.90;91.30;;;;;;4971978;28;20265;-84
2024/03/28 13:36:41;;;;;;;1.00;0.90;;;11.90;91.30;;;;;;4969710;28;20234;-84
2024/03/28 13:39:07;;;;;;;0.73;0.70;;;11.90;91.60;;;;;;4971363;28;20568;-83
2024/03/28 13:41:33;;;;;;;0.90;0.80;;;11.90;91.40;;;;;;4970455;28;20193;-83
2024/03/28 13:43:59;;;;;;;0.70;0.70;;;11.90;91.20;;;;;;4962939;28;20476;-85
2024/03/28 13:46:25;;;;;;;1.10;1.00;;;12.00;92.00;;;;;;4978555;28;20528;-84
2024/03/28 13:48:50;;;;;;;1.30;1.00;;;12.00;92.40;;;;;;4971552;28;20201;-85
2024/03/28 13:51:16;;;;;;;0.90;0.80;;;12.00;91.70;;;;;;4970628;28;20194;-85
2024/03/28 13:53:41;;;;;;;2.00;1.90;;;11.90;91.80;;;;;;4963115;28;20678;-84
2024/03/28 13:56:07;;;;;;;0.90;0.80;;;11.80;91.40;;;;;;4982667;28;20200;-85
2024/03/28 13:58:33;;;;;;;2.80;2.60;;;11.70;91.20;;;;;;4988774;28;20656;-85
2024/03/28 14:01:00;;;;;;;0.90;0.80;;;11.60;91.20;;;;;;4988174;28;20196;-85
2024/03/28 14:03:26;;;;;;;0.90;0.80;;;11.60;91.50;;;;;;4972714;28;20433;-85
2024/03/28 14:05:57;;;;;;;0.80;0.70;;;11.60;91.20;;;;;;4971820;28;20453;-84
2024/03/28 14:08:23;;;;;;;1.07;0.97;;;11.60;91.10;;;;;;4964418;28;20195;-84
2024/03/28 14:10:48;;;;;;;0.70;0.70;;;11.50;91.00;;;;;;4974647;28;20429;-84
2024/03/28 14:13:14;;;;;;;1.00;0.90;;;11.60;91.00;;;;;;4975900;28;20180;-85
2024/03/28 14:15:39;;;;;;;0.70;0.70;;;11.60;91.00;;;;;;4965773;28;20213;-85
2024/03/28 14:18:06;;;;;;;0.90;0.80;;;11.60;91.20;;;;;;4960466;28;20182;-85
2024/03/28 14:20:35;;;;;;;1.00;0.90;;;11.70;91.40;;;;;;4973909;28;20198;-82
2024/03/28 14:23:01;;;;;;;1.10;1.00;;;11.70;91.50;;;;;;4992927;28;20475;-85
2024/03/28 14:25:26;;;;;;;1.00;0.90;;;11.70;92.00;;;;;;4989782;28;20865;-85
2024/03/28 14:27:51;;;;;;;1.10;1.00;;;11.80;92.30;;;;;;4989903;28;20239;-86
2024/03/28 14:30:17;;;;;;;1.13;1.03;;;11.90;92.40;;;;;;5005036;28;20269;-84
2024/03/28 14:32:43;;;;;;;1.00;0.90;;;11.80;91.30;;;;;;4970852;28;20245;-82
2024/03/28 14:35:09;;;;;;;1.17;1.00;;;11.70;91.30;;;;;;4984709;28;20262;-84
2024/03/28 14:37:34;;;;;;;1.00;0.90;;;11.70;91.70;;;;;;4972416;29;20534;-84
2024/03/28 14:40:04;;;;;;;1.20;1.10;;;11.60;90.80;;;;;;4974197;29;20441;-84
2024/03/28 14:42:30;;;;;;;0.93;0.83;;;11.60;91.20;;;;;;4972296;29;20338;-84
2024/03/28 14:44:56;;;;;;;1.00;0.90;;;11.50;91.40;;;;;;4974987;28;20467;-85
2024/03/28 14:47:22;;;;;;;1.03;0.93;;;11.50;90.50;;;;;;4974153;29;20418;-84
2024/03/28 14:49:51;;;;;;;0.90;0.80;;;11.40;89.90;;;;;;4976401;28;20823;-85
2024/03/28 14:52:17;;;;;;;1.57;1.47;;;11.40;90.60;;;;;;4972653;28;20450;-85
2024/03/28 14:54:48;;;;;;;1.53;1.10;;;11.50;90.60;;;;;;4957837;29;20435;-85
2024/03/28 14:57:13;;;;;;;0.97;0.93;;;11.50;90.90;;;;;;4965112;29;20423;-84
2024/03/28 14:59:39;;;;;;;1.60;1.50;;;11.60;90.80;;;;;;4968118;28;20440;-85
2024/03/28 15:02:04;;;;;;;0.90;0.80;;;11.70;91.20;;;;;;5001599;28;20199;-85
2024/03/28 15:04:30;;;;;;;1.80;1.10;;;11.90;90.40;;;;;;4982479;28;20206;-85
2024/03/28 15:06:55;;;;;;;2.13;2.03;;;12.40;88.60;;;;;;4984363;28;20198;-85
2024/03/28 15:09:20;;;;;;;2.50;1.20;;;13.00;86.90;;;;;;4975655;28;20526;-85
2024/03/28 15:11:46;;;;;;;0.90;0.80;;;13.00;85.80;;;;;;4984108;28;20629;-85
2024/03/28 15:14:11;;;;;;;0.90;0.80;;;13.20;85.40;;;;;;4982367;28;20186;-85
2024/03/28 15:16:38;;;;;;;0.93;0.83;;;13.50;84.80;;;;;;4971847;28;20626;-86
2024/03/28 15:19:04;;;;;;;0.90;0.80;;;13.30;84.70;;;;;;4972020;28;20171;-86
2024/03/28 15:21:30;;;;;;;0.90;0.80;;;13.00;85.20;;;;;;4970917;28;20806;-86
2024/03/28 15:23:56;;;;;;;1.10;1.00;;;13.60;84.60;;;;;;4971784;28;20175;-86
2024/03/28 15:26:21;;;;;;;0.90;0.80;;;13.90;83.40;;;;;;4971921;28;20890;-86
2024/03/28 15:28:47;;;;;;;0.90;0.80;;;14.00;83.40;;;;;;4971932;28;20627;-86
2024/03/28 15:31:12;;;;;;;0.90;0.80;;;14.70;83.10;;;;;;4964239;28;20187;-85
2024/03/28 15:33:38;;;;;;;0.73;0.70;;;14.50;81.90;;;;;;4971091;28;20562;-85
2024/03/28 15:36:04;;;;;;;0.93;0.83;;;13.70;83.40;;;;;;4986791;28;20454;-85
2024/03/28 15:38:29;;;;;;;3.53;1.10;;;13.40;84.50;;;;;;4972515;28;20185;-85
2024/03/28 15:40:55;;;;;;;3.27;1.20;;;13.00;85.10;;;;;;4961089;28;20196;-86
2024/03/28 15:43:21;;;;;;;0.90;0.90;;;12.80;86.00;;;;;;4984203;28;20178;-86
2024/03/28 15:45:47;;;;;;;1.00;0.90;;;12.80;86.40;;;;;;4985045;28;20450;-86
2024/03/28 15:48:14;;;;;;;0.90;0.90;;;13.00;86.10;;;;;;4974878;28;20206;-86
2024/03/28 15:50:45;;;;;;;0.90;0.80;;;13.20;85.70;;;;;;4974504;28;20567;-87
2024/03/28 15:53:11;;;;;;;0.80;0.80;;;13.30;85.20;;;;;;4974543;28;20444;-86
2024/03/28 15:55:38;;;;;;;1.20;1.10;;;13.00;85.40;;;;;;4974329;28;20966;-86
2024/03/28 15:58:04;;;;;;;1.37;1.33;;;13.10;86.10;;;;;;4966605;28;20476;-85
2024/03/28 16:00:30;;;;;;;0.90;0.80;;;12.90;86.30;;;;;;4966906;28;20425;-86
2024/03/28 16:02:56;;;;;;;1.03;0.93;;;12.80;86.60;;;;;;4967203;28;20798;-85
2024/03/28 16:05:22;;;;;;;0.80;0.80;;;12.70;86.30;;;;;;4965833;28;20668;-86
2024/03/28 16:07:48;;;;;;;0.90;0.80;;;12.80;85.60;;;;;;4959078;28;20455;-85
2024/03/28 16:10:14;;;;;;;2.50;1.30;;;13.70;83.30;;;;;;4967248;28;20428;-86
2024/03/28 16:12:39;;;;;;;0.90;0.80;;;14.00;82.50;;;;;;4957758;28;20516;-86
2024/03/28 16:15:05;;;;;;;0.90;0.80;;;14.60;81.60;;;;;;4974324;28;20500;-85
2024/03/28 16:17:31;;;;;;;0.90;0.80;;;14.70;78.60;;;;;;4972571;28;20593;-84
2024/03/28 16:19:56;;;;;;;0.90;0.80;;;14.90;78.40;;;;;;4955269;28;20562;-84
2024/03/28 16:22:23;;;;;;;0.97;0.87;;;15.20;77.90;;;;;;4963247;28;20548;-86
2024/03/28 16:24:48;;;;;;;1.13;1.03;;;15.70;77.30;;;;;;4958946;28;20429;-85
2024/03/28 16:27:14;;;;;;;0.90;0.80;;;16.00;76.00;;;;;;4974269;28;20268;-85
2024/03/28 16:29:40;;;;;;;1.00;0.90;;;16.20;75.60;;;;;;4957443;28;20205;-86
2024/03/28 16:32:06;;;;;;;1.10;1.00;;;16.50;75.30;;;;;;4966399;28;20185;-85
2024/03/28 16:34:31;;;;;;;1.73;1.00;;;16.50;74.70;;;;;;4964946;28;20692;-84
2024/03/28 16:36:57;;;;;;;1.23;1.00;;;16.00;74.00;;;;;;4960998;28;20187;-86
2024/03/28 16:39:24;;;;;;;0.80;0.70;;;16.00;74.00;;;;;;4967652;28;20209;-85
2024/03/28 16:41:49;;;;;;;1.23;1.10;;;15.80;73.30;;;;;;4936267;29;20601;-85
2024/03/28 16:44:15;;;;;;;0.90;0.80;;;15.70;73.30;;;;;;4943316;28;20426;-85
2024/03/28 16:46:41;;;;;;;1.00;0.90;;;14.80;74.20;;;;;;4970777;28;20426;-85
2024/03/28 16:49:07;;;;;;;1.87;1.33;;;13.90;76.20;;;;;;4948696;29;20590;-86
2024/03/28 16:51:32;;;;;;;0.90;0.80;;;13.80;77.40;;;;;;4944071;28;20274;-85
2024/03/28 16:54:03;;;;;;;0.90;0.80;;;14.20;76.80;;;;;;4936031;29;20518;-85
2024/03/28 16:56:29;;;;;;;1.17;1.07;;;14.20;77.20;;;;;;4951817;28;20249;-85
2024/03/28 16:58:54;;;;;;;1.00;0.90;;;14.00;77.10;;;;;;4936201;29;20968;-85
2024/03/28 17:01:20;;;;;;;0.60;0.60;;;14.00;77.60;;;;;;4944008;28;20245;-86
2024/03/28 17:03:45;;;;;;;1.00;0.90;;;14.40;76.80;;;;;;4943823;28;20225;-86
2024/03/28 17:06:11;;;;;;;0.80;0.73;;;14.10;76.90;;;;;;4950384;28;20699;-85
2024/03/28 17:08:36;;;;;;;0.90;0.80;;;13.30;78.90;;;;;;4945255;28;20210;-84
2024/03/28 17:11:02;;;;;;;0.70;0.70;;;12.70;80.30;;;;;;4936382;29;20287;-86
2024/03/28 17:13:28;;;;;;;0.83;0.73;;;12.30;81.10;;;;;;4936668;28;20662;-85
2024/03/28 17:15:56;;;;;;;1.20;1.10;;;12.20;82.00;;;;;;4947692;28;20209;-85
2024/03/28 17:18:21;;;;;;;1.43;0.90;;;12.00;82.50;;;;;;4971571;28;20189;-86
2024/03/28 17:20:47;;;;;;;1.00;0.90;;;11.80;82.50;;;;;;4954486;28;20422;-85
2024/03/28 17:23:12;;;;;;;1.00;0.90;;;11.70;82.40;;;;;;4940837;29;20175;-86
2024/03/28 17:25:38;;;;;;;1.27;1.07;;;11.60;82.40;;;;;;4953165;28;20212;-86
2024/03/28 17:28:07;;;;;;;0.90;0.80;;;11.50;82.20;;;;;;4954364;28;20202;-86
2024/03/28 17:30:39;;;;;;;1.03;0.93;;;11.40;82.50;;;;;;4951173;28;20428;-86
2024/03/28 17:33:06;;;;;;;0.90;0.80;;;11.40;82.20;;;;;;4935016;29;20501;-86
2024/03/28 17:35:31;;;;;;;0.90;0.80;;;11.30;82.40;;;;;;4963821;28;20513;-85
2024/03/28 17:37:57;;;;;;;0.90;0.80;;;11.20;82.50;;;;;;4948065;28;21005;-85
2024/03/28 17:40:23;;;;;;;1.20;1.10;;;11.10;83.00;;;;;;4944635;28;20650;-85
2024/03/28 17:42:50;;;;;;;1.00;0.90;;;11.10;83.20;;;;;;4941131;28;20242;-85
2024/03/28 17:45:16;;;;;;;0.90;0.80;;;11.00;83.70;;;;;;4950497;28;20206;-86
2024/03/28 17:47:42;;;;;;;0.90;0.80;;;11.00;84.00;;;;;;4942754;28;20452;-86
2024/03/28 17:50:07;;;;;;;1.20;1.10;;;10.90;84.40;;;;;;4951002;28;20234;-85